createdAt,value
2022-10-13T00:01:58.217Z,70.64
2022-10-13T00:04:24.742Z,70.93
2022-10-13T00:06:51.282Z,71.12
2022-10-13T00:09:17.800Z,71.83
2022-10-13T00:11:44.365Z,71.24
2022-10-13T00:14:11.014Z,70.84
2022-10-13T00:16:37.689Z,70.60
2022-10-13T00:19:04.302Z,71.29
2022-10-13T00:21:31.013Z,71.45
2022-10-13T00:23:57.813Z,71.73
2022-10-13T00:26:25.821Z,71.32
2022-10-13T00:28:53.310Z,71.67
2022-10-13T00:31:24.948Z,71.99
2022-10-13T00:33:52.873Z,71.04
2022-10-13T00:36:21.318Z,71.60
2022-10-13T00:38:47.868Z,71.30
2022-10-13T00:41:14.907Z,71.35
2022-10-13T00:46:35.652Z,72.14
2022-10-13T00:49:09.708Z,71.29
2022-10-13T00:51:42.356Z,71.86
2022-10-13T00:54:11.515Z,71.84
2022-10-13T00:56:39.665Z,72.38
2022-10-13T00:59:13.647Z,72.21
2022-10-13T01:01:40.266Z,71.36
2022-10-13T01:04:06.908Z,72.03
2022-10-13T01:06:34.404Z,72.52
2022-10-13T01:09:00.897Z,71.43
2022-10-13T01:22:18.599Z,71.06
2022-10-13T01:25:03.266Z,70.57
2022-10-13T01:30:19.403Z,71.12
2022-10-13T01:38:33.960Z,71.11
2022-10-13T01:41:27.280Z,71.83
2022-10-13T01:46:43.928Z,72.06
2022-10-13T01:49:14.543Z,71.52
2022-10-13T01:51:42.246Z,72.33
2022-10-13T01:54:09.002Z,71.17
2022-10-13T01:56:35.597Z,71.80
2022-10-13T01:59:10.406Z,71.31
2022-10-13T02:07:32.578Z,72.06
2022-10-13T02:10:39.057Z,71.23
2022-10-13T02:13:08.536Z,71.57
2022-10-13T02:15:40.649Z,72.53
2022-10-13T02:18:09.403Z,72.36
2022-10-13T02:20:36.769Z,72.42
2022-10-13T02:23:09.528Z,72.16
2022-10-13T02:25:36.874Z,71.72
2022-10-13T02:28:04.211Z,72.42
2022-10-13T02:30:33.458Z,72.45
2022-10-13T02:33:02.850Z,72.67
2022-10-13T02:35:31.007Z,72.31
2022-10-13T02:37:57.560Z,71.70
2022-10-13T02:40:24.764Z,72.16
2022-10-13T02:42:51.411Z,72.22
2022-10-13T02:45:17.961Z,72.23
2022-10-13T02:47:44.660Z,72.58
2022-10-13T02:50:11.586Z,71.78
2022-10-13T02:52:38.342Z,72.27
2022-10-13T02:55:05.682Z,71.57
2022-10-13T02:57:32.624Z,72.53
2022-10-13T02:59:59.633Z,71.84
2022-10-13T03:02:27.601Z,71.91
2022-10-13T03:04:54.649Z,72.43
2022-10-13T03:07:21.206Z,71.67
2022-10-13T03:09:47.777Z,72.93
2022-10-13T03:12:14.317Z,73.00
2022-10-13T03:14:40.887Z,71.98
2022-10-13T03:17:12.462Z,72.31
2022-10-13T03:19:39.912Z,72.47
2022-10-13T03:22:06.533Z,72.23
2022-10-13T03:24:33.065Z,71.99
2022-10-13T03:26:59.577Z,71.82
2022-10-13T03:29:26.213Z,72.41
2022-10-13T03:31:52.722Z,72.87
2022-10-13T03:34:20.346Z,72.70
2022-10-13T03:36:47.085Z,73.27
2022-10-13T03:39:14.027Z,72.30
2022-10-13T03:41:40.552Z,73.13
2022-10-13T03:44:07.625Z,72.67
2022-10-13T03:46:34.239Z,72.38
2022-10-13T03:49:00.870Z,73.46
2022-10-13T03:51:27.415Z,73.27
2022-10-13T03:53:54.257Z,73.69
2022-10-13T03:56:25.227Z,73.39
2022-10-13T03:58:55.398Z,73.15
2022-10-13T04:01:23.627Z,73.36
2022-10-13T04:03:52.202Z,73.24
2022-10-13T04:06:18.758Z,73.03
2022-10-13T04:08:45.324Z,74.02
2022-10-13T04:11:14.142Z,72.82
2022-10-13T04:13:41.531Z,73.47
2022-10-13T04:16:13.734Z,73.26
2022-10-13T04:18:44.498Z,73.74
2022-10-13T04:21:15.003Z,73.92
2022-10-13T04:23:41.654Z,73.67
2022-10-13T04:26:16.371Z,72.93
2022-10-13T04:28:42.967Z,72.48
2022-10-13T04:31:09.744Z,72.67
2022-10-13T04:33:36.386Z,73.70
2022-10-13T04:36:05.528Z,73.69
2022-10-13T04:38:32.193Z,73.29
2022-10-13T04:40:58.771Z,73.14
2022-10-13T04:43:25.313Z,73.58
2022-10-13T04:45:51.875Z,72.29
2022-10-13T04:48:18.388Z,72.51
2022-10-13T04:50:45.006Z,72.08
2022-10-13T04:53:14.245Z,73.12
2022-10-13T04:55:44.746Z,73.12
2022-10-13T04:58:11.275Z,73.00
2022-10-13T05:00:37.834Z,72.80
2022-10-13T05:03:04.435Z,72.17
2022-10-13T05:05:30.986Z,72.24
2022-10-13T05:07:57.522Z,72.66
2022-10-13T05:10:24.087Z,72.63
2022-10-13T05:12:51.681Z,72.46
2022-10-13T05:15:18.256Z,72.59
2022-10-13T05:17:44.881Z,72.53
2022-10-13T05:20:11.945Z,72.15
2022-10-13T05:22:38.537Z,72.14
2022-10-13T05:25:05.406Z,71.90
2022-10-13T05:27:31.952Z,72.45
2022-10-13T05:29:58.561Z,73.20
2022-10-13T05:32:25.172Z,72.76
2022-10-13T05:34:51.794Z,73.32
2022-10-13T05:37:18.433Z,73.08
2022-10-13T05:39:48.775Z,73.15
2022-10-13T05:42:15.573Z,73.44
2022-10-13T05:44:42.859Z,72.27
2022-10-13T05:47:09.376Z,72.53
2022-10-13T05:49:39.645Z,73.15
2022-10-13T05:52:10.362Z,72.36
2022-10-13T05:54:42.163Z,72.47
2022-10-13T05:57:17.705Z,73.03
2022-10-13T05:59:52.437Z,73.68
2022-10-13T06:02:24.175Z,73.61
2022-10-13T06:04:53.886Z,73.52
2022-10-13T06:07:20.730Z,73.84
2022-10-13T06:09:47.352Z,72.45
2022-10-13T06:12:13.946Z,73.50
2022-10-13T06:14:40.531Z,72.68
2022-10-13T06:17:07.871Z,73.84
2022-10-13T06:19:34.600Z,73.01
2022-10-13T06:22:03.633Z,72.49
2022-10-13T06:24:30.569Z,72.93
2022-10-13T06:26:57.228Z,72.83
2022-10-13T06:29:23.820Z,72.99
2022-10-13T06:31:50.544Z,72.76
2022-10-13T06:34:17.085Z,73.07
2022-10-13T06:36:43.690Z,73.02
2022-10-13T06:39:10.389Z,74.20
2022-10-13T06:41:36.936Z,72.98
2022-10-13T06:44:03.669Z,72.80
2022-10-13T06:46:30.234Z,72.88
2022-10-13T06:48:56.746Z,72.93
2022-10-13T06:51:23.321Z,72.92
2022-10-13T06:53:49.885Z,73.92
2022-10-13T06:56:16.449Z,73.93
2022-10-13T06:58:42.987Z,73.56
2022-10-13T07:01:12.822Z,73.62
2022-10-13T07:03:39.362Z,73.17
2022-10-13T07:06:07.429Z,73.50
2022-10-13T07:08:34.981Z,73.41
2022-10-13T07:11:15.914Z,73.03
2022-10-13T07:13:46.473Z,73.10
2022-10-13T07:16:14.853Z,72.76
2022-10-13T07:18:41.599Z,73.98
2022-10-13T07:21:08.170Z,73.33
2022-10-13T07:23:34.777Z,74.02
2022-10-13T07:26:01.902Z,72.92
2022-10-13T07:28:28.709Z,73.44
2022-10-13T07:30:55.570Z,73.99
2022-10-13T07:33:22.650Z,72.54
2022-10-13T07:35:49.311Z,73.73
2022-10-13T07:38:16.006Z,72.80
2022-10-13T07:40:42.591Z,73.84
2022-10-13T07:43:09.185Z,73.78
2022-10-13T07:45:36.170Z,73.40
2022-10-13T07:48:02.776Z,73.68
2022-10-13T07:50:29.902Z,73.95
2022-10-13T07:52:56.495Z,74.05
2022-10-13T07:55:23.141Z,74.04
2022-10-13T07:57:49.682Z,72.79
2022-10-13T08:00:16.684Z,72.80
2022-10-13T08:02:43.223Z,73.87
2022-10-13T08:05:09.926Z,74.19
2022-10-13T08:07:39.279Z,73.97
2022-10-13T08:10:06.412Z,73.13
2022-10-13T08:12:35.575Z,74.42
2022-10-13T08:15:06.062Z,73.43
2022-10-13T08:17:33.328Z,74.61
2022-10-13T08:19:59.924Z,73.97
2022-10-13T08:22:28.447Z,73.87
2022-10-13T08:24:56.014Z,74.38
2022-10-13T08:27:32.830Z,74.14
2022-10-13T08:30:11.811Z,74.76
2022-10-13T08:32:38.385Z,73.68
2022-10-13T08:35:05.288Z,74.08
2022-10-13T08:37:31.905Z,73.73
2022-10-13T08:39:59.193Z,73.73
2022-10-13T08:42:25.812Z,73.79
2022-10-13T08:50:26.250Z,72.99
2022-10-13T08:53:04.594Z,73.21
2022-10-13T08:55:39.637Z,72.82
2022-10-13T08:58:14.872Z,72.83
2022-10-13T09:00:42.033Z,73.81
2022-10-13T09:03:22.664Z,73.34
2022-10-13T09:08:54.346Z,72.49
2022-10-13T09:11:21.199Z,72.57
2022-10-13T09:13:47.787Z,72.28
2022-10-13T09:16:15.397Z,72.07
2022-10-13T09:18:42.094Z,72.19
2022-10-13T09:21:11.326Z,71.70
2022-10-13T09:23:41.041Z,72.03
2022-10-13T09:26:16.071Z,71.87
2022-10-13T09:28:42.880Z,71.25
2022-10-13T09:31:24.695Z,70.79
2022-10-13T09:33:59.316Z,71.33
2022-10-13T09:36:26.292Z,71.38
2022-10-13T09:39:14.109Z,71.21
2022-10-13T09:41:42.310Z,70.80
2022-10-13T09:44:16.658Z,71.16
2022-10-13T09:46:55.400Z,70.55
2022-10-13T09:52:02.818Z,69.50
2022-10-13T09:57:41.993Z,69.19
2022-10-13T10:00:21.901Z,68.95
2022-10-13T10:05:57.628Z,67.90
2022-10-13T10:14:32.854Z,68.26
2022-10-13T10:17:31.003Z,67.40
2022-10-13T10:23:13.980Z,66.31
2022-10-13T10:25:47.107Z,66.37
2022-10-13T10:28:53.469Z,66.32
2022-10-13T10:39:55.086Z,64.72
2022-10-13T10:45:01.527Z,64.81
2022-10-13T10:47:36.343Z,63.35
2022-10-13T10:50:06.410Z,63.52
2022-10-13T10:55:30.165Z,63.46
2022-10-13T11:00:55.662Z,62.51
2022-10-13T11:08:47.539Z,61.42
2022-10-13T11:11:36.428Z,62.08
2022-10-13T11:19:39.310Z,60.50
2022-10-13T11:27:26.221Z,60.53
2022-10-13T11:29:57.303Z,60.81
2022-10-13T11:40:34.196Z,60.82
2022-10-13T11:51:53.494Z,59.87
2022-10-13T11:54:41.660Z,60.64
2022-10-13T11:57:20.259Z,61.11
2022-10-13T11:59:49.335Z,60.62
2022-10-13T12:02:19.162Z,60.34
2022-10-13T12:07:40.517Z,60.00
2022-10-13T12:10:17.367Z,60.42
2022-10-13T12:12:49.544Z,60.51
2022-10-13T12:18:30.004Z,60.16
2022-10-13T12:20:59.490Z,60.18
2022-10-13T12:23:27.132Z,60.40
2022-10-13T12:25:58.482Z,60.25
2022-10-13T12:28:28.133Z,60.26
2022-10-13T12:30:59.029Z,60.10
2022-10-13T12:36:17.705Z,60.59
2022-10-13T12:38:49.599Z,60.26
2022-10-13T12:41:20.078Z,60.42
2022-10-13T12:43:46.806Z,60.60
2022-10-13T12:46:13.403Z,60.29
2022-10-13T12:48:40.330Z,60.65
2022-10-13T12:53:52.469Z,60.51
2022-10-13T12:56:27.607Z,60.94
2022-10-13T12:58:54.963Z,60.34
2022-10-13T13:01:30.334Z,60.13
2022-10-13T13:04:01.277Z,60.21
2022-10-13T13:06:33.349Z,59.90
2022-10-13T13:09:18.790Z,59.88
2022-10-13T13:11:45.406Z,59.37
2022-10-13T13:14:35.695Z,59.08
2022-10-13T13:19:49.972Z,59.35
2022-10-13T13:22:16.714Z,58.56
2022-10-13T13:24:43.710Z,58.89
2022-10-13T13:27:28.018Z,58.90
2022-10-13T13:29:55.850Z,57.73
2022-10-13T13:32:25.387Z,58.57
2022-10-13T13:34:52.003Z,58.18
2022-10-13T13:37:37.584Z,58.09
2022-10-13T13:40:05.666Z,58.56
2022-10-13T13:42:33.036Z,57.91
2022-10-13T13:44:59.622Z,58.72
2022-10-13T13:47:28.660Z,58.27
2022-10-13T13:49:56.452Z,58.78
2022-10-13T13:52:25.312Z,59.10
2022-10-13T13:54:52.635Z,58.35
2022-10-13T13:57:20.340Z,58.62
2022-10-13T13:59:47.567Z,58.55
2022-10-13T14:02:18.850Z,58.86
2022-10-13T14:04:45.845Z,58.65
2022-10-13T14:07:12.885Z,58.58
2022-10-13T14:09:39.445Z,59.02
2022-10-13T14:12:06.140Z,58.59
2022-10-13T14:14:33.114Z,58.54
2022-10-13T14:17:01.227Z,59.34
2022-10-13T14:19:27.870Z,59.28
2022-10-13T14:21:54.425Z,59.06
2022-10-13T14:24:21.156Z,59.33
2022-10-13T14:26:47.720Z,59.49
2022-10-13T14:29:14.741Z,58.81
2022-10-13T14:31:41.432Z,58.53
2022-10-13T14:34:08.186Z,58.80
2022-10-13T14:36:34.968Z,58.88
2022-10-13T14:39:01.511Z,58.41
2022-10-13T14:41:28.162Z,57.91
2022-10-13T14:43:56.145Z,58.10
2022-10-13T14:46:23.357Z,58.25
2022-10-13T14:48:50.319Z,58.64
2022-10-13T14:51:17.369Z,58.90
2022-10-13T14:53:45.379Z,58.68
2022-10-13T14:56:17.614Z,58.77
2022-10-13T14:58:44.592Z,59.26
2022-10-13T15:01:11.193Z,58.94
2022-10-13T15:03:37.818Z,58.88
2022-10-13T15:06:04.547Z,58.42
2022-10-13T15:08:31.099Z,58.19
2022-10-13T15:11:02.565Z,58.75
2022-10-13T15:13:29.935Z,58.78
2022-10-13T15:15:57.686Z,58.50
2022-10-13T15:18:28.982Z,58.17
2022-10-13T15:20:55.889Z,58.47
2022-10-13T15:23:22.723Z,58.31
2022-10-13T15:25:51.249Z,58.10
2022-10-13T15:28:18.221Z,58.52
2022-10-13T15:30:45.717Z,58.64
2022-10-13T15:33:12.247Z,59.05
2022-10-13T15:35:38.811Z,58.87
2022-10-13T15:38:05.421Z,59.02
2022-10-13T15:40:33.690Z,58.93
2022-10-13T15:43:00.550Z,59.43
2022-10-13T15:45:27.407Z,59.21
2022-10-13T15:47:53.930Z,59.01
2022-10-13T15:50:20.648Z,59.45
2022-10-13T15:52:47.209Z,59.58
2022-10-13T15:55:13.918Z,59.53
2022-10-13T15:57:40.582Z,59.49
2022-10-13T16:00:09.697Z,59.88
2022-10-13T16:02:36.356Z,59.52
2022-10-13T16:05:05.331Z,59.68
2022-10-13T16:07:32.544Z,60.21
2022-10-13T16:09:59.283Z,59.76
2022-10-13T16:12:28.001Z,59.89
2022-10-13T16:14:54.861Z,59.96
2022-10-13T16:17:21.875Z,60.13
2022-10-13T16:19:48.717Z,60.11
2022-10-13T16:22:15.415Z,59.77
2022-10-13T16:24:41.954Z,60.15
2022-10-13T16:27:08.557Z,60.34
2022-10-13T16:29:35.138Z,60.37
2022-10-13T16:32:01.694Z,60.31
2022-10-13T16:34:28.234Z,60.68
2022-10-13T16:36:54.961Z,60.82
2022-10-13T16:39:23.373Z,60.61
2022-10-13T16:41:51.299Z,61.15
2022-10-13T16:44:18.156Z,60.94
2022-10-13T16:46:45.314Z,60.91
2022-10-13T16:49:12.934Z,61.53
2022-10-13T16:51:39.490Z,61.38
2022-10-13T16:54:06.243Z,61.46
2022-10-13T16:56:33.207Z,61.39
2022-10-13T16:59:04.017Z,61.79
2022-10-13T17:01:32.536Z,61.21
2022-10-13T17:03:59.198Z,61.90
2022-10-13T17:06:27.847Z,61.95
2022-10-13T17:08:55.219Z,62.14
2022-10-13T17:11:25.064Z,61.85
2022-10-13T17:13:51.945Z,62.84
2022-10-13T17:16:19.297Z,62.46
2022-10-13T17:18:46.573Z,62.73
2022-10-13T17:21:16.027Z,62.53
2022-10-13T17:23:48.115Z,63.13
2022-10-13T17:26:16.984Z,62.71
2022-10-13T17:28:43.707Z,62.97
2022-10-13T17:33:50.071Z,62.98
2022-10-13T17:38:56.314Z,63.69
2022-10-13T17:41:24.264Z,63.98
2022-10-13T17:43:52.024Z,63.93
2022-10-13T17:46:36.288Z,64.33
2022-10-13T17:49:04.590Z,63.93
2022-10-13T17:51:31.222Z,64.25
2022-10-13T17:53:59.609Z,64.34
2022-10-13T17:56:26.864Z,64.26
2022-10-13T17:58:53.872Z,64.13
2022-10-13T18:01:24.527Z,64.14
2022-10-13T18:03:54.364Z,65.08
2022-10-13T18:06:22.249Z,65.39
2022-10-13T18:08:50.605Z,65.14
2022-10-13T18:11:19.872Z,65.20
2022-10-13T18:13:47.001Z,64.32
2022-10-13T18:16:18.214Z,64.58
2022-10-13T18:18:45.757Z,65.03
2022-10-13T18:21:14.663Z,64.40
2022-10-13T18:23:42.050Z,65.20
2022-10-13T18:26:12.557Z,65.21
2022-10-13T18:28:40.523Z,65.44
2022-10-13T18:31:09.863Z,66.44
2022-10-13T18:33:36.853Z,66.30
2022-10-13T18:36:23.697Z,65.62
2022-10-13T18:38:52.098Z,65.39
2022-10-13T18:41:22.251Z,65.78
2022-10-13T18:43:48.921Z,66.35
2022-10-13T18:46:15.461Z,65.90
2022-10-13T18:48:42.265Z,66.75
2022-10-13T18:51:13.265Z,66.52
2022-10-13T18:53:43.633Z,66.13
2022-10-13T18:56:14.294Z,66.37
2022-10-13T18:58:41.341Z,66.26
2022-10-13T19:01:10.352Z,67.12
2022-10-13T19:03:38.635Z,66.83
2022-10-13T19:06:07.363Z,66.42
2022-10-13T19:08:34.751Z,67.21
2022-10-13T19:11:01.597Z,66.36
2022-10-13T19:13:28.263Z,67.35
2022-10-13T19:16:02.930Z,66.21
2022-10-13T19:18:29.757Z,66.82
2022-10-13T19:20:56.360Z,67.63
2022-10-13T19:23:22.973Z,66.49
2022-10-13T19:25:49.786Z,67.41
2022-10-13T19:28:16.709Z,67.37
2022-10-13T19:30:43.766Z,67.23
2022-10-13T19:33:12.281Z,66.88
2022-10-13T19:35:45.240Z,66.84
2022-10-13T19:38:12.319Z,66.70
2022-10-13T19:40:43.587Z,66.82
2022-10-13T19:43:11.107Z,67.97
2022-10-13T19:45:44.479Z,67.23
2022-10-13T19:48:11.116Z,68.10
2022-10-13T19:50:37.891Z,67.61
2022-10-13T19:53:05.000Z,66.78
2022-10-13T19:55:36.912Z,66.98
2022-10-13T19:58:03.493Z,67.93
2022-10-13T20:00:30.256Z,68.62
2022-10-13T20:02:56.796Z,68.25
2022-10-13T20:05:25.447Z,67.26
2022-10-13T20:07:52.280Z,67.59
2022-10-13T20:10:18.903Z,68.87
2022-10-13T20:12:45.491Z,68.61
2022-10-13T20:15:12.223Z,68.65
2022-10-13T20:17:38.777Z,67.79
2022-10-13T20:20:06.590Z,67.56
2022-10-13T20:22:33.697Z,68.60
2022-10-13T20:25:00.258Z,67.74
2022-10-13T20:27:26.868Z,67.69
2022-10-13T20:29:53.389Z,68.61
2022-10-13T20:32:20.069Z,68.85
2022-10-13T20:34:46.689Z,67.95
2022-10-13T20:37:13.250Z,68.88
2022-10-13T20:39:39.883Z,68.48
2022-10-13T20:42:06.539Z,68.16
2022-10-13T20:44:33.229Z,68.00
2022-10-13T20:47:00.213Z,68.33
2022-10-13T20:49:27.123Z,67.97
2022-10-13T20:51:53.690Z,69.13
2022-10-13T20:54:20.492Z,69.40
2022-10-13T20:56:47.337Z,68.38
2022-10-13T20:59:15.625Z,68.41
2022-10-13T21:01:42.518Z,68.35
2022-10-13T21:04:09.120Z,69.05
2022-10-13T21:06:36.520Z,69.48
2022-10-13T21:09:05.581Z,68.72
2022-10-13T21:11:32.562Z,69.75
2022-10-13T21:13:59.129Z,68.54
2022-10-13T21:16:27.926Z,69.71
2022-10-13T21:18:56.154Z,68.61
2022-10-13T21:21:26.727Z,69.30
2022-10-13T21:23:56.691Z,69.73
2022-10-13T21:26:24.204Z,70.17
2022-10-13T21:28:51.626Z,69.40
2022-10-13T21:31:20.740Z,69.27
2022-10-13T21:33:48.174Z,69.83
2022-10-13T21:36:18.743Z,69.11
2022-10-13T21:38:49.989Z,69.48
2022-10-13T21:41:16.605Z,69.16
2022-10-13T21:43:43.231Z,69.71
2022-10-13T21:46:12.187Z,70.26
2022-10-13T21:48:39.366Z,68.88
2022-10-13T21:53:56.693Z,69.31
2022-10-13T21:56:23.894Z,69.17
2022-10-13T21:58:50.595Z,69.66
2022-10-13T22:01:18.647Z,69.13
2022-10-13T22:03:47.559Z,69.30
2022-10-13T22:06:18.972Z,70.00
2022-10-13T22:08:48.373Z,69.20
2022-10-13T22:11:15.856Z,70.39
2022-10-13T22:13:42.398Z,69.62
2022-10-13T22:16:19.033Z,69.69
2022-10-13T22:18:45.966Z,70.04
2022-10-13T22:21:16.000Z,69.74
2022-10-13T22:23:42.779Z,70.61
2022-10-13T22:26:10.122Z,69.20
2022-10-13T22:28:37.681Z,70.79
2022-10-13T22:31:06.366Z,69.90
2022-10-13T22:33:34.734Z,70.61
2022-10-13T22:36:06.387Z,69.95
2022-10-13T22:38:32.916Z,70.02
2022-10-13T22:41:04.153Z,69.63
2022-10-13T22:43:30.902Z,70.86
2022-10-13T22:45:57.707Z,70.52
2022-10-13T22:48:24.550Z,70.70
2022-10-13T22:50:51.096Z,70.24
2022-10-13T22:53:17.718Z,70.21
2022-10-13T22:55:44.321Z,70.88
2022-10-13T22:58:10.908Z,70.94
2022-10-13T23:00:38.687Z,70.51
2022-10-13T23:03:06.080Z,70.68
2022-10-13T23:05:32.757Z,70.77
2022-10-13T23:07:59.429Z,70.39
2022-10-13T23:10:26.078Z,71.38
2022-10-13T23:12:52.613Z,71.04
2022-10-13T23:15:19.198Z,70.60
2022-10-13T23:17:45.779Z,70.89
2022-10-13T23:20:12.700Z,70.85
2022-10-13T23:22:39.223Z,70.85
2022-10-13T23:25:06.133Z,71.24
2022-10-13T23:27:32.717Z,70.71
2022-10-13T23:29:59.233Z,71.40
2022-10-13T23:32:25.879Z,71.61
2022-10-13T23:34:52.415Z,70.51
2022-10-13T23:37:19.194Z,70.90
2022-10-13T23:39:46.042Z,72.15
2022-10-13T23:42:12.581Z,71.30
2022-10-13T23:44:39.174Z,70.93
2022-10-13T23:47:05.731Z,71.72
2022-10-13T23:49:32.313Z,72.38
2022-10-13T23:51:58.919Z,71.91
2022-10-13T23:54:25.503Z,72.23
2022-10-13T23:56:52.043Z,71.37
2022-10-13T23:59:18.631Z,71.67
